createdAt,value
2023-11-25T08:51:13.073Z,99217.69
2023-11-25T08:53:45.951Z,99222.70
2023-11-25T08:56:14.706Z,99226.33
2023-11-25T08:58:42.783Z,99227.56
2023-11-25T09:01:13.257Z,99226.56
2023-11-25T09:03:42.114Z,99225.73
2023-11-25T09:06:10.444Z,99221.54
2023-11-25T09:08:38.671Z,99221.14
2023-11-25T09:11:08.663Z,99220.27
2023-11-25T09:13:36.914Z,99227.26
2023-11-25T09:16:06.464Z,99229.63
2023-11-25T09:18:34.573Z,99231.13
2023-11-25T09:21:02.696Z,99236.73
2023-11-25T09:23:30.939Z,99241.95
2023-11-25T09:26:04.338Z,99236.70
2023-11-25T09:28:32.769Z,99241.42
2023-11-25T09:31:01.054Z,99241.48
2023-11-25T09:33:29.476Z,99245.71
2023-11-25T09:35:57.642Z,99254.07
2023-11-25T09:38:25.695Z,99259.55
2023-11-25T09:40:53.998Z,99262.38
2023-11-25T09:43:22.919Z,99262.27
2023-11-25T09:45:58.642Z,99258.91
2023-11-25T09:48:27.097Z,99259.45
2023-11-25T09:50:57.078Z,99266.67
2023-11-25T09:53:31.037Z,99273.57
2023-11-25T09:56:06.766Z,99273.51
2023-11-25T09:58:37.952Z,99273.18
2023-11-25T10:01:08.019Z,99274.92
2023-11-25T10:03:44.608Z,99275.41
2023-11-25T10:06:13.288Z,99280.40
2023-11-25T10:08:41.705Z,99281.18
2023-11-25T10:11:10.222Z,99280.33
2023-11-25T10:13:44.576Z,99278.10
2023-11-25T10:16:15.237Z,99276.86
2023-11-25T10:18:43.473Z,99277.35
2023-11-25T10:21:11.675Z,99270.88
2023-11-25T10:23:40.319Z,99274.86
2023-11-25T10:26:09.830Z,99274.34
2023-11-25T10:28:38.442Z,99271.34
2023-11-25T10:31:07.356Z,99268.73
2023-11-25T10:33:38.991Z,99265.27
2023-11-25T10:36:07.789Z,99269.41
2023-11-25T10:38:40.854Z,99269.17
2023-11-25T10:41:09.342Z,99264.17
2023-11-25T10:43:37.527Z,99265.52
2023-11-25T10:46:07.184Z,99267.92
2023-11-25T10:48:40.412Z,99269.83
2023-11-25T10:51:12.314Z,99275.70
2023-11-25T10:53:46.254Z,99270.19
2023-11-25T10:56:15.892Z,99269.16
2023-11-25T10:58:51.519Z,99273.70
2023-11-25T11:01:32.888Z,99278.05
2023-11-25T11:04:22.937Z,99276.73
2023-11-25T11:07:09.610Z,99274.75
2023-11-25T11:09:42.065Z,99274.66
2023-11-25T11:12:31.632Z,99271.50
2023-11-25T11:15:11.375Z,99273.56
2023-11-25T11:18:09.560Z,99275.41
2023-11-25T11:20:49.649Z,99274.48
2023-11-25T11:23:24.845Z,99277.40
2023-11-25T11:26:17.713Z,99275.33
2023-11-25T11:29:21.851Z,99275.59
2023-11-25T11:32:19.668Z,99277.05
2023-11-25T11:34:50.662Z,99268.95
2023-11-25T11:37:21.054Z,99266.71
2023-11-25T11:39:53.714Z,99277.88
2023-11-25T11:42:28.013Z,99279.04
2023-11-25T11:45:17.196Z,99274.34
2023-11-25T11:47:48.013Z,99274.56
2023-11-25T11:50:20.727Z,99273.88
2023-11-25T11:53:14.335Z,99274.45
2023-11-25T11:55:56.251Z,99274.88
2023-11-25T11:58:27.396Z,99282.64
2023-11-25T12:01:08.232Z,99277.34
2023-11-25T12:03:40.441Z,99274.95
2023-11-25T12:06:20.490Z,99273.00
2023-11-25T12:08:55.602Z,99267.75
2023-11-25T12:11:26.987Z,99267.83
2023-11-25T12:13:55.810Z,99263.81
2023-11-25T12:16:27.879Z,99268.21
2023-11-25T12:18:56.431Z,99264.90
2023-11-25T12:21:26.904Z,99264.27
2023-11-25T12:24:12.350Z,99261.33
2023-11-25T12:26:59.095Z,99263.23
2023-11-25T12:29:34.603Z,99267.85
2023-11-25T12:32:09.867Z,99267.31
2023-11-25T12:34:40.140Z,99272.02
2023-11-25T12:37:09.387Z,99275.90
2023-11-25T12:39:40.476Z,99274.06
2023-11-25T12:42:10.010Z,99274.92
2023-11-25T12:44:51.580Z,99275.89
2023-11-25T12:47:20.321Z,99277.08
2023-11-25T12:49:51.172Z,99279.14
2023-11-25T12:52:25.435Z,99284.73
2023-11-25T12:54:56.903Z,99286.71
2023-11-25T12:57:32.253Z,99288.95
2023-11-25T13:00:25.722Z,99294.39
2023-11-25T13:02:54.476Z,99301.51
2023-11-25T13:05:26.774Z,99301.17
2023-11-25T13:07:55.788Z,99301.81
2023-11-25T13:10:28.007Z,99304.11
2023-11-25T13:12:56.576Z,99305.41
2023-11-25T13:15:58.953Z,99303.63
2023-11-25T13:18:28.979Z,99301.79
2023-11-25T13:21:04.299Z,99305.17
2023-11-25T13:23:51.955Z,99300.69
2023-11-25T13:26:20.502Z,99300.39
2023-11-25T13:28:48.781Z,99295.03
2023-11-25T13:31:16.967Z,99296.55
2023-11-25T13:33:45.388Z,99301.65
2023-11-25T13:36:13.642Z,99306.88
2023-11-25T13:38:42.986Z,99312.96
2023-11-25T13:41:11.670Z,99318.40
2023-11-25T13:43:43.204Z,99322.78
2023-11-25T13:46:11.517Z,99328.30
2023-11-25T13:48:39.793Z,99334.63
2023-11-25T13:51:10.980Z,99335.64
2023-11-25T13:53:41.948Z,99330.45
2023-11-25T13:56:11.485Z,99332.35
2023-11-25T14:35:20.590Z,99367.21
2023-11-25T14:37:50.276Z,99370.76
2023-11-25T14:40:19.435Z,99374.23
2023-11-25T14:42:48.340Z,99378.14
2023-11-25T14:45:17.084Z,99380.17
2023-11-25T14:47:46.937Z,99386.08
2023-11-25T14:50:15.812Z,99387.33
2023-11-25T14:52:44.525Z,99387.48
2023-11-25T14:55:13.200Z,99392.30
2023-11-25T14:57:45.561Z,99393.20
2023-11-25T15:00:14.626Z,99392.56
2023-11-25T15:02:47.360Z,99391.47
2023-11-25T15:05:17.288Z,99394.48
2023-11-25T15:07:46.877Z,99393.40
2023-11-25T15:10:18.400Z,99398.55
2023-11-25T15:12:51.332Z,99403.15
2023-11-25T15:15:20.601Z,99401.59
2023-11-25T15:18:13.357Z,99400.84
2023-11-25T15:21:06.263Z,99400.31
2023-11-25T15:24:01.931Z,99401.52
2023-11-25T15:26:36.867Z,99403.08
2023-11-25T15:29:07.567Z,99401.39
2023-11-25T15:32:04.400Z,99405.65
2023-11-25T15:35:41.555Z,99403.34
2023-11-25T15:38:18.874Z,99398.45
2023-11-25T15:40:57.156Z,99400.08
2023-11-25T15:43:27.908Z,99399.52
2023-11-25T15:45:56.796Z,99398.35
2023-11-25T15:48:26.609Z,99399.85
2023-11-25T15:51:16.181Z,99399.73
2023-11-25T15:53:47.702Z,99405.32
2023-11-25T15:56:18.971Z,99412.29
2023-11-25T15:58:50.349Z,99414.41
2023-11-25T16:01:21.509Z,99410.97
2023-11-25T16:04:33.786Z,99411.90
2023-11-25T16:07:51.970Z,99410.48
2023-11-25T16:10:58.525Z,99411.41
2023-11-25T16:14:26.186Z,99415.48
2023-11-25T16:17:21.786Z,99419.38
2023-11-25T16:20:01.044Z,99415.90
2023-11-25T16:22:29.605Z,99415.04
2023-11-25T16:25:00.079Z,99412.91
2023-11-25T16:27:31.626Z,99414.55
2023-11-25T16:30:03.298Z,99416.28
2023-11-25T16:32:34.775Z,99419.55
2023-11-25T16:35:04.369Z,99419.64
2023-11-25T16:37:57.650Z,99426.20
2023-11-25T16:40:31.759Z,99432.73
2023-11-25T16:43:05.986Z,99435.61
2023-11-25T16:46:01.465Z,99437.70
2023-11-25T16:48:39.192Z,99439.98
2023-11-25T16:51:20.505Z,99442.50
2023-11-25T16:53:48.880Z,99449.80
2023-11-25T16:56:18.493Z,99454.05
2023-11-25T16:58:50.023Z,99454.61
2023-11-25T17:01:19.194Z,99453.70
2023-11-25T17:03:48.612Z,99457.21
2023-11-25T17:06:21.477Z,99458.26
2023-11-25T17:08:50.351Z,99460.75
2023-11-25T17:11:19.168Z,99466.15
2023-11-25T17:13:47.920Z,99468.38
2023-11-25T17:16:21.407Z,99472.80
2023-11-25T17:18:50.363Z,99468.38
2023-11-25T17:21:19.224Z,99471.09
2023-11-25T17:23:48.052Z,99472.02
2023-11-25T17:26:16.460Z,99475.73
2023-11-25T17:28:46.481Z,99479.73
2023-11-25T17:31:15.184Z,99486.13
2023-11-25T17:33:43.685Z,99484.77
2023-11-25T17:36:16.784Z,99493.63
2023-11-25T17:38:45.138Z,99495.10
2023-11-25T17:41:13.524Z,99495.98
2023-11-25T17:43:42.193Z,99498.55
2023-11-25T17:46:10.584Z,99503.66
2023-11-25T17:48:39.181Z,99505.59
2023-11-25T17:51:12.925Z,99509.28
2023-11-25T17:53:43.786Z,99511.89
2023-11-25T17:56:13.062Z,99514.98
2023-11-25T17:58:47.971Z,99514.45
2023-11-25T18:01:17.152Z,99509.89
2023-11-25T18:03:46.118Z,99514.20
2023-11-25T18:06:15.246Z,99514.20
2023-11-25T18:08:44.354Z,99513.55
2023-11-25T18:11:15.695Z,99521.60
2023-11-25T18:13:45.138Z,99518.96
2023-11-25T18:16:13.829Z,99525.37
2023-11-25T18:18:43.572Z,99524.47
2023-11-25T18:21:12.573Z,99529.23
2023-11-25T18:23:41.573Z,99535.58
2023-11-25T18:26:13.396Z,99542.95
2023-11-25T18:28:44.324Z,99551.57
2023-11-25T18:31:18.265Z,99550.11
2023-11-25T18:33:46.837Z,99557.00
2023-11-25T18:36:15.339Z,99562.09
2023-11-25T18:38:48.518Z,99565.13
2023-11-25T18:41:17.312Z,99566.29
2023-11-25T18:43:46.417Z,99567.95
2023-11-25T18:46:15.244Z,99578.59
2023-11-25T18:48:43.820Z,99578.67
2023-11-25T18:51:12.684Z,99579.02
2023-11-25T18:53:41.298Z,99582.92
2023-11-25T18:56:13.066Z,99583.48
2023-11-25T18:58:43.708Z,99587.14
2023-11-25T19:01:12.250Z,99587.73
2023-11-25T19:03:40.781Z,99582.17
2023-11-25T19:06:11.745Z,99581.48
2023-11-25T19:08:40.248Z,99582.14
2023-11-25T19:11:09.448Z,99582.78
2023-11-25T19:13:37.876Z,99586.50
2023-11-25T19:16:06.715Z,99587.70
2023-11-25T19:18:35.990Z,99592.32
2023-11-25T19:21:05.774Z,99598.48
2023-11-25T19:23:36.477Z,99598.37
2023-11-25T19:26:07.708Z,99597.32
2023-11-25T19:28:36.361Z,99598.80
2023-11-25T19:31:05.258Z,99599.63
2023-11-25T19:33:36.373Z,99596.52
2023-11-25T19:36:05.551Z,99600.28
2023-11-25T19:38:34.931Z,99601.54
2023-11-25T19:41:04.737Z,99611.53
2023-11-25T19:43:34.437Z,99606.02
2023-11-25T19:46:05.508Z,99612.17
2023-11-25T19:48:38.510Z,99613.10
2023-11-25T19:51:16.910Z,99614.13
2023-11-25T19:53:50.677Z,99613.33
2023-11-25T19:56:23.433Z,99615.20
2023-11-25T19:58:52.111Z,99622.63
2023-11-25T20:01:20.980Z,99621.50
2023-11-25T20:03:50.700Z,99617.71
2023-11-25T20:06:19.385Z,99615.97
2023-11-25T20:08:48.110Z,99615.32
2023-11-25T20:11:16.666Z,99614.83
2023-11-25T20:13:45.382Z,99611.94
2023-11-25T20:16:13.922Z,99615.98
2023-11-25T20:18:42.558Z,99625.27
2023-11-25T20:21:11.803Z,99630.00
2023-11-25T20:23:42.306Z,99631.26
2023-11-25T20:26:11.129Z,99631.02
2023-11-25T20:28:39.919Z,99636.48
2023-11-25T20:31:08.428Z,99638.56
2023-11-25T20:33:40.332Z,99643.02
2023-11-25T20:36:10.011Z,99648.08
2023-11-25T20:38:44.487Z,99650.97
2023-11-25T20:41:13.958Z,99645.95
2023-11-25T20:43:43.179Z,99645.70
2023-11-25T20:46:12.110Z,99652.49
2023-11-25T20:48:40.548Z,99656.75
2023-11-25T20:51:10.950Z,99661.14
2023-11-25T20:53:42.566Z,99661.86
2023-11-25T20:56:11.429Z,99663.08
2023-11-25T20:58:40.258Z,99669.85
2023-11-25T21:01:13.461Z,99672.95
2023-11-25T21:03:41.964Z,99672.02
2023-11-25T21:06:11.659Z,99676.40
2023-11-25T21:08:40.349Z,99673.05
2023-11-25T21:11:11.215Z,99680.11
2023-11-25T21:13:40.393Z,99681.42
2023-11-25T21:16:09.011Z,99685.27
2023-11-25T21:18:39.585Z,99685.53
2023-11-25T21:21:08.938Z,99687.86
2023-11-25T21:23:37.551Z,99686.38
2023-11-25T21:26:06.214Z,99692.90
2023-11-25T21:28:35.134Z,99698.82
2023-11-25T21:31:03.229Z,99704.70
2023-11-25T21:33:31.678Z,99704.38
2023-11-25T21:36:00.002Z,99709.39
2023-11-25T21:38:32.253Z,99712.42
2023-11-25T21:41:01.120Z,99716.71
2023-11-25T21:43:29.685Z,99717.46
2023-11-25T21:45:58.105Z,99720.91
2023-11-25T21:48:26.705Z,99722.39
2023-11-25T21:50:55.706Z,99724.98
2023-11-25T21:53:25.145Z,99726.62
2023-11-25T21:55:53.795Z,99725.89
2023-11-25T21:58:22.178Z,99720.79
2023-11-25T22:00:50.684Z,99723.93
2023-11-25T22:03:19.679Z,99730.60
2023-11-25T22:05:50.344Z,99728.73
2023-11-25T22:08:18.819Z,99733.55
2023-11-25T22:10:48.525Z,99737.52
2023-11-25T22:13:16.743Z,99740.02
2023-11-25T22:15:45.269Z,99743.56
2023-11-25T22:18:14.314Z,99746.58
2023-11-25T22:20:44.230Z,99746.23
2023-11-25T22:23:15.380Z,99750.95
2023-11-25T22:25:56.085Z,99753.34
2023-11-25T22:28:24.660Z,99760.65
2023-11-25T22:30:54.191Z,99760.40
2023-11-25T22:33:22.711Z,99768.79
2023-11-25T22:35:58.258Z,99765.80
2023-11-25T22:38:29.235Z,99766.02
2023-11-25T22:40:57.792Z,99769.10
2023-11-25T22:43:26.691Z,99772.21
2023-11-25T22:45:58.763Z,99774.44
2023-11-25T22:48:27.284Z,99775.71
2023-11-25T22:50:57.442Z,99770.38
2023-11-25T22:53:30.233Z,99775.64
2023-11-25T22:55:59.157Z,99778.42
2023-11-25T22:58:27.653Z,99782.45
2023-11-25T23:01:00.318Z,99783.23
2023-11-25T23:03:28.931Z,99777.83
2023-11-25T23:05:57.965Z,99782.17
2023-11-25T23:08:26.712Z,99777.89
2023-11-25T23:11:02.698Z,99777.69
2023-11-25T23:13:31.107Z,99782.55
2023-11-25T23:16:00.027Z,99780.91
2023-11-25T23:18:28.452Z,99781.02
2023-11-25T23:20:59.795Z,99780.91
2023-11-25T23:23:37.601Z,99778.23
2023-11-25T23:26:09.511Z,99778.95
2023-11-25T23:28:38.728Z,99778.66
2023-11-25T23:31:10.385Z,99777.04
2023-11-25T23:33:40.183Z,99778.89
2023-11-25T23:36:10.861Z,99784.13
2023-11-25T23:38:39.334Z,99788.22
2023-11-25T23:41:07.907Z,99797.31
2023-11-25T23:43:36.467Z,99802.27
2023-11-25T23:46:05.120Z,99805.49
2023-11-25T23:48:33.741Z,99808.19
2023-11-25T23:51:02.060Z,99811.29
2023-11-25T23:53:30.367Z,99810.23
2023-11-25T23:55:59.056Z,99813.15
2023-11-25T23:58:27.396Z,99812.08
